Time;durP1;ratioP1;P1;durP2;ratioP2;P2;SDS_P1;SDS_P2;PMS_P1;PMS_P2;Temp;Humidity;BMP_temperature;BMP_pressure;BME280_temperature;BME280_humidity;BME280_pressure;Samples;Min_cycle;Max_cycle;Signal;HPM_P1;HPM_P2
2022/01/26 00:07:46;;;;;;;52.40;15.70;;;;;;;2.37;100.00;102338.09;7400928;19;20439;-49
2022/01/26 00:10:16;;;;;;;77.53;20.93;;;;;;;2.36;100.00;102343.97;7408337;19;20498;-48
2022/01/26 00:12:48;;;;;;;67.73;21.17;;;;;;;2.38;100.00;102339.91;7404653;19;20443;-47
2022/01/26 00:15:18;;;;;;;67.32;21.42;;;;;;;2.36;100.00;102331.22;7407007;19;20387;-49
2022/01/26 00:17:49;;;;;;;66.57;16.27;;;;;;;2.35;100.00;102337.94;7376428;19;20178;-47
2022/01/26 00:20:24;;;;;;;60.97;18.23;;;;;;;2.35;100.00;102330.31;7407919;19;20466;-48
2022/01/26 00:23:07;;;;;;;51.40;16.13;;;;;;;2.33;100.00;102336.00;7399919;19;20697;-44
2022/01/26 00:25:44;;;;;;;73.40;18.48;;;;;;;2.36;100.00;102333.75;7362314;19;20427;-48
2022/01/26 00:39:23;;;;;;;60.30;18.60;;;;;;;2.32;100.00;102319.81;7406790;19;20389;-51
2022/01/26 00:41:56;;;;;;;66.73;18.20;;;;;;;2.36;100.00;102310.84;7381790;19;20451;-47
2022/01/26 00:44:36;;;;;;;57.47;17.75;;;;;;;2.28;100.00;102321.16;7406633;19;20367;-49
2022/01/26 00:47:07;;;;;;;53.30;16.00;;;;;;;2.33;100.00;102321.63;7357906;19;20204;-48
2022/01/26 00:49:36;;;;;;;53.05;17.30;;;;;;;2.34;100.00;102308.13;7399377;19;20388;-43
2022/01/26 00:52:11;;;;;;;47.53;15.00;;;;;;;2.32;100.00;102311.28;7375259;19;20732;-48
2022/01/26 00:54:41;;;;;;;47.50;14.80;;;;;;;2.27;100.00;102306.59;7397152;19;20656;-48
2022/01/26 00:57:11;;;;;;;45.20;14.00;;;;;;;2.26;100.00;102320.09;7392500;19;20418;-53
2022/01/26 00:59:43;;;;;;;51.13;17.70;;;;;;;2.34;100.00;102318.31;7400199;19;20451;-52
2022/01/26 01:02:12;;;;;;;51.95;14.80;;;;;;;2.33;100.00;102313.06;7397428;19;20455;-44
2022/01/26 01:04:42;;;;;;;38.77;12.90;;;;;;;2.26;100.00;102304.81;7399263;19;20161;-45
2022/01/26 01:07:18;;;;;;;51.80;16.17;;;;;;;2.21;100.00;102298.34;7395750;19;20420;-45
2022/01/26 01:09:47;;;;;;;30.67;10.67;;;;;;;2.18;100.00;102305.69;7399593;19;20396;-45
2022/01/26 01:12:17;;;;;;;37.93;12.83;;;;;;;2.16;100.00;102308.06;7400472;19;20507;-46
2022/01/26 01:14:49;;;;;;;51.03;14.30;;;;;;;2.21;100.00;102310.19;7397488;19;20856;-47
2022/01/26 01:17:23;;;;;;;49.22;15.13;;;;;;;2.21;100.00;102308.53;7396528;19;20403;-44
2022/01/26 01:20:09;;;;;;;43.67;13.57;;;;;;;2.18;100.00;102305.69;7399416;19;20392;-48
2022/01/26 01:23:06;;;;;;;51.60;14.23;;;;;;;2.18;100.00;102303.16;7395583;19;20879;-48
2022/01/26 01:28:32;;;;;;;52.30;14.80;;;;;;;2.20;100.00;102309.28;7399287;19;20427;-46
2022/01/26 01:31:12;;;;;;;52.88;16.63;;;;;;;2.20;100.00;102306.72;7397342;19;20419;-47
2022/01/26 01:33:44;;;;;;;52.77;14.87;;;;;;;2.22;100.00;102297.63;7399572;19;20119;-47
2022/01/26 01:36:16;;;;;;;39.30;12.97;;;;;;;2.16;100.00;102299.56;7398342;19;20410;-44
2022/01/26 01:38:45;;;;;;;59.90;13.07;;;;;;;2.13;100.00;102294.13;7400200;19;20398;-45
2022/01/26 01:41:15;;;;;;;53.53;14.52;;;;;;;2.12;100.00;102280.53;7397302;19;20191;-43
2022/01/26 01:43:45;;;;;;;38.60;12.57;;;;;;;2.11;100.00;102273.59;7400205;19;20203;-46
2022/01/26 01:46:17;;;;;;;46.97;14.17;;;;;;;2.12;100.00;102274.50;7396890;19;20681;-46
2022/01/26 01:48:46;;;;;;;53.10;17.17;;;;;;;2.14;100.00;102268.84;7400728;19;20860;-46
2022/01/26 01:51:17;;;;;;;44.57;14.43;;;;;;;2.14;100.00;102262.81;7398912;19;20423;-45
2022/01/26 01:53:47;;;;;;;58.17;17.43;;;;;;;2.11;100.00;102262.53;7400328;19;20451;-44
2022/01/26 01:56:22;;;;;;;45.80;13.37;;;;;;;2.13;100.00;102254.31;7397645;19;20417;-47
2022/01/26 01:58:52;;;;;;;40.90;10.30;;;;;;;2.07;100.00;102251.13;7400941;19;20447;-44
2022/01/26 02:01:24;;;;;;;58.33;17.13;;;;;;;2.14;100.00;102247.53;7398613;19;20437;-44
2022/01/26 02:03:56;;;;;;;57.55;15.80;;;;;;;2.15;100.00;102244.25;7403897;19;20203;-43
2022/01/26 02:06:25;;;;;;;37.90;13.00;;;;;;;2.13;100.00;102240.66;7398433;19;20190;-43
2022/01/26 02:08:55;;;;;;;55.53;17.95;;;;;;;2.12;100.00;102229.59;7400285;19;20406;-43
2022/01/26 02:11:24;;;;;;;50.93;14.93;;;;;;;2.13;100.00;102233.00;7398079;19;20443;-45
2022/01/26 02:14:01;;;;;;;51.30;15.10;;;;;;;2.15;100.00;102224.78;7400359;19;20458;-43
2022/01/26 02:16:41;;;;;;;46.53;14.77;;;;;;;2.18;100.00;102234.38;7398141;19;20412;-46
2022/01/26 02:19:41;;;;;;;53.70;17.30;;;;;;;2.16;100.00;102230.78;7399969;19;20651;-45
2022/01/26 02:49:49;;;;;;;51.05;15.93;;;;;;;2.15;100.00;102221.31;7399233;19;20123;-46
2022/01/26 02:52:38;;;;;;;66.45;19.33;;;;;;;2.21;100.00;102219.38;7397205;19;20186;-50
2022/01/26 02:55:21;;;;;;;53.28;16.55;;;;;;;2.18;100.00;102226.75;7398368;19;20140;-45
2022/01/26 02:58:10;;;;;;;63.00;17.45;;;;;;;2.19;100.00;102218.34;7398645;19;20174;-47
2022/01/26 03:00:50;;;;;;;46.97;14.05;;;;;;;2.11;100.00;102212.47;7401776;19;20226;-46
2022/01/26 03:03:24;;;;;;;36.78;10.57;;;;;;;2.07;100.00;102196.75;7397356;19;20138;-43
2022/01/26 03:05:58;;;;;;;50.08;17.15;;;;;;;2.09;100.00;102198.72;7395951;19;20479;-45
2022/01/26 03:08:33;;;;;;;57.88;15.93;;;;;;;2.10;100.00;102199.63;7399624;19;20167;-46
2022/01/26 03:11:09;;;;;;;63.25;18.75;;;;;;;2.10;100.00;102194.53;7397017;19;20190;-48
2022/01/26 03:13:44;;;;;;;40.70;12.63;;;;;;;2.04;100.00;102186.28;7397603;19;20175;-45
2022/01/26 03:16:19;;;;;;;57.00;12.32;;;;;;;2.02;100.00;102192.09;7395906;19;20194;-45
2022/01/26 03:19:04;;;;;;;47.35;15.48;;;;;;;2.00;100.00;102183.41;7398776;19;20150;-43
2022/01/26 03:21:41;;;;;;;31.17;10.27;;;;;;;2.02;100.00;102175.94;7396832;19;20239;-44
2022/01/26 03:29:56;;;;;;;56.03;18.63;;;;;;;2.08;100.00;102165.44;7398118;19;20133;-47
2022/01/26 03:32:56;;;;;;;69.40;20.83;;;;;;;2.07;100.00;102158.56;7396587;19;20815;-50
2022/01/26 03:35:41;;;;;;;64.50;19.17;;;;;;;2.07;100.00;102172.22;7395039;19;20155;-47
2022/01/26 03:38:17;;;;;;;69.72;20.52;;;;;;;2.09;100.00;102170.69;7397986;19;20395;-48
2022/01/26 03:40:56;;;;;;;81.50;20.63;;;;;;;2.07;100.00;102166.19;7403983;19;20189;-47
2022/01/26 03:43:28;;;;;;;60.73;18.30;;;;;;;2.02;100.00;102171.72;7403709;19;20130;-44
2022/01/26 03:45:57;;;;;;;67.27;17.87;;;;;;;2.06;100.00;102162.78;7402294;19;20402;-44
2022/01/26 03:48:27;;;;;;;78.10;22.40;;;;;;;2.06;100.00;102172.97;7405272;19;20370;-46
2022/01/26 03:50:56;;;;;;;52.28;15.82;;;;;;;2.10;100.00;102169.06;7403223;19;20870;-43
2022/01/26 03:53:26;;;;;;;86.80;21.70;;;;;;;2.09;100.00;102167.25;7406025;19;20510;-43
2022/01/26 03:55:55;;;;;;;77.07;22.57;;;;;;;2.12;100.00;102162.47;7402331;19;20417;-48
2022/01/26 03:58:27;;;;;;;71.23;19.60;;;;;;;2.09;100.00;102164.69;7405055;19;20676;-44
2022/01/26 04:00:57;;;;;;;57.53;17.63;;;;;;;2.07;100.00;102162.03;7403133;19;20427;-44
2022/01/26 04:03:27;;;;;;;73.25;21.02;;;;;;;2.12;100.00;102172.66;7402744;19;20396;-44
2022/01/26 04:05:57;;;;;;;54.83;16.47;;;;;;;2.08;100.00;102184.19;7401577;19;20218;-43
2022/01/26 04:08:29;;;;;;;73.93;20.40;;;;;;;2.12;100.00;102176.13;7404640;19;20451;-46
2022/01/26 04:11:09;;;;;;;69.93;19.80;;;;;;;2.08;100.00;102176.53;7403232;19;20418;-45
2022/01/26 04:13:41;;;;;;;58.08;17.05;;;;;;;2.04;100.00;102168.47;7408754;19;20391;-45
2022/01/26 04:16:11;;;;;;;99.63;32.53;;;;;;;2.07;100.00;102167.09;7401592;19;20583;-43
2022/01/26 04:18:41;;;;;;;83.70;21.88;;;;;;;2.09;100.00;102167.25;7404344;19;20529;-43
2022/01/26 04:21:19;;;;;;;70.40;19.43;;;;;;;2.28;100.00;102170.88;7402837;19;20191;-43
2022/01/26 04:23:50;;;;;;;83.20;26.07;;;;;;;2.21;100.00;102167.56;7402430;19;20389;-45
2022/01/26 04:26:25;;;;;;;74.70;23.87;;;;;;;2.14;100.00;102164.41;7401055;19;20413;-47
2022/01/26 04:29:02;;;;;;;87.20;24.08;;;;;;;2.27;100.00;102165.63;7404175;19;20635;-43
2022/01/26 04:31:31;;;;;;;61.90;20.13;;;;;;;2.19;100.00;102163.97;7401982;19;20190;-45
2022/01/26 04:34:01;;;;;;;35.77;12.17;;;;;;;2.08;100.00;102147.63;7403951;19;20414;-45
2022/01/26 04:36:35;;;;;;;51.10;17.13;;;;;;;2.16;100.00;102149.28;7367621;19;20395;-46
2022/01/26 04:39:09;;;;;;;39.60;12.57;;;;;;;2.05;100.00;102145.66;7403046;19;20130;-47
2022/01/26 04:41:43;;;;;;;69.30;21.00;;;;;;;2.18;100.00;102151.97;7401686;19;20410;-43
2022/01/26 04:44:20;;;;;;;56.20;17.83;;;;;;;2.10;100.00;102148.69;7401620;19;20402;-43
2022/01/26 04:46:50;;;;;;;66.60;16.10;;;;;;;2.09;100.00;102149.41;7393509;19;20419;-45
2022/01/26 04:49:20;;;;;;;58.08;15.70;;;;;;;2.01;100.00;102149.56;7402712;19;20140;-47
2022/01/26 04:51:50;;;;;;;63.90;18.03;;;;;;;2.02;100.00;102145.38;7377650;19;20486;-46
2022/01/26 04:54:19;;;;;;;36.17;10.63;;;;;;;1.94;100.00;102147.16;7402425;19;20697;-45
2022/01/26 04:56:49;;;;;;;63.00;18.05;;;;;;;1.98;100.00;102136.53;7400234;19;20435;-43
2022/01/26 04:59:21;;;;;;;47.95;13.40;;;;;;;1.95;100.00;102142.97;7402707;19;20391;-47
2022/01/26 05:01:50;;;;;;;53.72;18.33;;;;;;;1.90;100.00;102134.91;7392662;19;20183;-48
2022/01/26 05:04:20;;;;;;;58.60;17.50;;;;;;;1.91;100.00;102121.41;7400907;19;20409;-45
2022/01/26 05:06:49;;;;;;;53.08;17.58;;;;;;;1.96;100.00;102125.31;7398949;19;20251;-44
2022/01/26 05:09:20;;;;;;;50.45;17.33;;;;;;;1.92;100.00;102123.22;7402503;19;20115;-46
2022/01/26 05:11:52;;;;;;;38.17;11.93;;;;;;;1.91;100.00;102120.50;7400310;19;20183;-45
2022/01/26 05:14:24;;;;;;;60.80;17.80;;;;;;;1.89;100.00;102116.16;7403128;19;20409;-45
2022/01/26 05:16:54;;;;;;;43.80;11.40;;;;;;;1.85;100.00;102120.81;7397977;19;20524;-47
2022/01/26 05:19:24;;;;;;;46.45;14.73;;;;;;;1.83;100.00;102112.09;7402250;19;20403;-46
2022/01/26 05:21:53;;;;;;;40.20;13.18;;;;;;;1.85;100.00;102119.16;7400225;19;20187;-46
2022/01/26 05:24:23;;;;;;;43.28;12.80;;;;;;;1.80;100.00;102114.34;7400432;19;20129;-46
2022/01/26 05:26:52;;;;;;;23.83;9.05;;;;;;;1.82;100.00;102120.50;7399063;19;20201;-50
2022/01/26 05:29:24;;;;;;;43.45;13.68;;;;;;;1.81;100.00;102113.59;7401970;19;20742;-45
2022/01/26 05:31:54;;;;;;;57.47;16.83;;;;;;;1.85;100.00;102105.53;7400180;19;21234;-46
2022/01/26 05:34:23;;;;;;;44.72;12.48;;;;;;;1.81;100.00;102113.59;7404981;19;20123;-47
2022/01/26 05:36:53;;;;;;;39.53;13.40;;;;;;;1.85;100.00;102115.72;7399011;19;20186;-44
2022/01/26 05:39:22;;;;;;;44.78;13.98;;;;;;;1.80;100.00;102116.91;7401603;19;20191;-44
2022/01/26 05:41:52;;;;;;;53.17;15.52;;;;;;;1.82;100.00;102120.50;7393718;19;20190;-43
2022/01/26 05:44:24;;;;;;;34.43;11.50;;;;;;;1.79;100.00;102127.84;7400253;19;20171;-45
2022/01/26 05:46:54;;;;;;;32.28;10.38;;;;;;;1.88;100.00;102136.38;7398378;19;20691;-43
2022/01/26 05:49:25;;;;;;;46.60;14.32;;;;;;;1.80;100.00;102142.34;7401101;19;20541;-48
2022/01/26 05:51:54;;;;;;;50.55;12.75;;;;;;;1.82;100.00;102140.84;7399421;19;20598;-46
2022/01/26 05:54:24;;;;;;;54.33;16.40;;;;;;;1.87;100.00;102134.56;7401359;19;20124;-46
2022/01/26 05:56:53;;;;;;;66.00;19.37;;;;;;;1.91;100.00;102126.50;7394900;19;20474;-44
2022/01/26 05:59:25;;;;;;;53.53;14.80;;;;;;;1.82;100.00;102115.41;7400753;19;20663;-48
2022/01/26 06:01:56;;;;;;;55.05;16.67;;;;;;;1.82;100.00;102078.13;7399294;19;20190;-50
2022/01/26 06:04:27;;;;;;;36.55;11.43;;;;;;;1.78;100.00;102083.66;7399705;19;20143;-43
2022/01/26 06:06:58;;;;;;;48.70;17.48;;;;;;;1.81;100.00;102093.25;7398319;19;20194;-46
2022/01/26 06:09:27;;;;;;;55.70;15.20;;;;;;;1.81;100.00;102089.06;7400302;19;20133;-44
2022/01/26 06:11:57;;;;;;;51.25;16.92;;;;;;;1.80;100.00;102097.41;7398365;19;20186;-43
2022/01/26 06:14:29;;;;;;;56.85;16.13;;;;;;;1.79;100.00;102094.75;7400285;19;20445;-45
2022/01/26 06:16:58;;;;;;;50.45;15.48;;;;;;;1.80;100.00;102091.44;7396727;19;20197;-44
2022/01/26 06:19:28;;;;;;;43.45;14.25;;;;;;;1.80;100.00;102086.38;7403543;19;20147;-45
2022/01/26 06:21:58;;;;;;;38.47;12.07;;;;;;;1.75;100.00;102079.16;7395253;19;20186;-49
2022/01/26 06:24:31;;;;;;;53.53;16.17;;;;;;;1.82;100.00;102079.75;7398388;19;20127;-46
2022/01/26 06:27:01;;;;;;;48.65;16.15;;;;;;;1.77;100.00;102075.88;7396270;19;20194;-45
2022/01/26 06:29:33;;;;;;;29.83;9.20;;;;;;;1.73;100.00;102070.50;7399815;19;20182;-46
2022/01/26 06:32:02;;;;;;;35.47;11.05;;;;;;;1.71;100.00;102061.81;7397396;19;20444;-49
2022/01/26 06:34:32;;;;;;;42.25;13.07;;;;;;;1.75;100.00;102068.97;7399244;19;20123;-45
2022/01/26 06:37:01;;;;;;;40.10;10.30;;;;;;;1.70;100.00;102064.19;7393119;19;20511;-44
2022/01/26 06:39:31;;;;;;;45.38;14.15;;;;;;;1.78;100.00;102067.50;7399490;19;20521;-49
2022/01/26 06:42:03;;;;;;;50.35;15.05;;;;;;;1.76;100.00;102074.97;7397013;19;20203;-45
2022/01/26 06:44:45;;;;;;;55.25;15.85;;;;;;;1.78;100.00;102078.56;7397547;19;20123;-47
2022/01/26 06:47:32;;;;;;;36.60;9.70;;;;;;;1.77;100.00;102093.69;7399344;19;20198;-48
2022/01/26 06:50:02;;;;;;;61.08;17.73;;;;;;;1.79;100.00;102076.94;7399111;19;20141;-45
2022/01/26 06:52:32;;;;;;;38.05;12.35;;;;;;;1.71;100.00;102066.91;7391440;19;20279;-44
2022/01/26 06:55:04;;;;;;;48.97;12.63;;;;;;;1.75;100.00;102063.88;7398170;19;20130;-45
2022/01/26 06:57:33;;;;;;;45.08;15.20;;;;;;;1.75;100.00;102057.91;7397247;19;20246;-52
2022/01/26 07:00:07;;;;;;;48.92;13.90;;;;;;;1.74;100.00;102062.09;7398569;19;20143;-47
2022/01/26 07:02:36;;;;;;;51.20;17.60;;;;;;;1.89;100.00;102061.78;7397304;19;20189;-45
2022/01/26 07:05:06;;;;;;;35.65;12.35;;;;;;;1.89;100.00;102062.72;7396936;19;20123;-49
2022/01/26 07:07:36;;;;;;;32.65;11.00;;;;;;;1.77;100.00;102050.41;7396538;19;20190;-45
2022/01/26 07:10:07;;;;;;;47.35;15.23;;;;;;;1.87;100.00;102048.94;7398375;19;20207;-46
2022/01/26 07:12:37;;;;;;;47.33;13.25;;;;;;;1.85;100.00;102057.19;7396216;19;20192;-45
2022/01/26 07:23:19;;;;;;;57.05;17.65;;;;;;;1.81;100.00;102062.69;7398173;19;20135;-44
2022/01/26 07:25:48;;;;;;;28.92;9.85;;;;;;;1.81;100.00;102075.44;7393278;19;20186;-47
2022/01/26 07:28:18;;;;;;;49.05;13.20;;;;;;;1.85;100.00;102083.50;7397964;19;20581;-46
2022/01/26 07:30:50;;;;;;;57.95;18.13;;;;;;;1.88;100.00;102088.00;7395932;19;20190;-45
2022/01/26 07:33:20;;;;;;;40.65;12.80;;;;;;;1.82;100.00;102100.13;7401550;19;20130;-47
2022/01/26 07:35:49;;;;;;;53.97;17.63;;;;;;;1.85;100.00;102097.91;7394892;19;20197;-44
2022/01/26 07:38:19;;;;;;;36.70;9.83;;;;;;;1.80;100.00;102104.19;7397706;19;20119;-46
2022/01/26 07:40:48;;;;;;;36.25;12.73;;;;;;;1.77;100.00;102106.41;7393118;19;20426;-44
2022/01/26 07:43:18;;;;;;;48.80;17.10;;;;;;;1.73;100.00;102113.75;7400993;19;20131;-45
2022/01/26 07:45:50;;;;;;;47.13;14.68;;;;;;;1.71;100.00;102102.53;7393514;19;20258;-43
2022/01/26 07:48:20;;;;;;;48.95;16.20;;;;;;;1.74;100.00;102110.47;7397406;19;20147;-47
2022/01/26 07:50:51;;;;;;;37.47;12.07;;;;;;;1.73;100.00;102098.47;7395264;19;20190;-45
2022/01/26 07:53:21;;;;;;;53.00;15.40;;;;;;;1.71;100.00;102097.44;7398323;19;20138;-46
2022/01/26 07:55:51;;;;;;;40.55;13.35;;;;;;;1.70;100.00;102103.25;7394121;19;20207;-49
2022/01/26 07:58:21;;;;;;;42.38;16.40;;;;;;;1.69;100.00;102098.91;7397789;19;20183;-46
2022/01/26 08:00:53;;;;;;;47.42;15.02;;;;;;;1.64;100.00;102092.47;7396477;19;20227;-48
2022/01/26 08:03:23;;;;;;;53.13;17.13;;;;;;;1.62;100.00;102091.41;7397329;19;20123;-46
2022/01/26 08:05:53;;;;;;;58.78;19.90;;;;;;;1.66;100.00;102085.00;7393416;19;20194;-47
2022/01/26 08:08:22;;;;;;;35.35;11.93;;;;;;;1.60;100.00;102087.84;7397222;19;20120;-47
2022/01/26 08:10:52;;;;;;;49.42;14.63;;;;;;;1.58;100.00;102087.69;7395667;19;20185;-44
2022/01/26 08:13:21;;;;;;;51.90;15.02;;;;;;;1.60;100.00;102075.13;7396934;19;20119;-49
2022/01/26 08:15:57;;;;;;;23.83;8.32;;;;;;;1.54;100.00;102088.09;7393725;19;20190;-47
2022/01/26 08:18:26;;;;;;;47.42;11.98;;;;;;;1.57;100.00;102082.44;7397034;19;20438;-44
2022/01/26 08:21:02;;;;;;;45.05;14.13;;;;;;;1.60;100.00;102073.44;7395012;19;20186;-46
2022/01/26 08:23:32;;;;;;;57.10;16.25;;;;;;;1.55;100.00;102069.56;7396709;19;20174;-46
2022/01/26 08:26:02;;;;;;;41.35;14.20;;;;;;;1.48;100.00;102073.16;7398193;19;20201;-48
2022/01/26 08:28:36;;;;;;;40.70;11.30;;;;;;;1.52;100.00;102078.53;7403779;19;20135;-48
2022/01/26 08:31:08;;;;;;;35.47;10.20;;;;;;;1.52;100.00;102079.44;7403088;19;20292;-46
2022/01/26 08:33:38;;;;;;;32.28;11.57;;;;;;;1.52;100.00;102084.53;7403918;19;20162;-53
2022/01/26 08:36:08;;;;;;;47.15;13.48;;;;;;;1.51;100.00;102074.19;7401978;19;20205;-47
2022/01/26 08:38:37;;;;;;;54.47;17.40;;;;;;;1.54;100.00;102071.97;7407657;19;20162;-44
2022/01/26 08:41:07;;;;;;;45.00;12.80;;;;;;;1.51;100.00;102071.63;7404419;19;20188;-49
2022/01/26 08:43:37;;;;;;;51.92;14.85;;;;;;;1.54;100.00;102074.50;7403189;19;20145;-47
2022/01/26 08:46:09;;;;;;;34.00;12.88;;;;;;;1.47;100.00;102071.34;7402765;19;20285;-45
2022/01/26 08:48:39;;;;;;;36.35;11.85;;;;;;;1.54;100.00;102077.06;7403225;19;20123;-48
2022/01/26 08:51:08;;;;;;;64.43;19.83;;;;;;;1.58;100.00;102081.69;7402311;19;20554;-47
2022/01/26 08:53:38;;;;;;;36.05;12.20;;;;;;;1.56;100.00;102086.63;7402886;19;20391;-49
2022/01/26 08:56:07;;;;;;;56.03;18.65;;;;;;;1.62;100.00;102091.41;7399562;19;20201;-48
2022/01/26 08:58:37;;;;;;;157.60;37.92;;;;;;;1.70;100.00;102105.78;7402813;19;20183;-47
2022/01/26 09:01:09;;;;;;;84.13;21.23;;;;;;;1.73;100.00;102097.56;7403618;19;20199;-45
2022/01/26 09:03:41;;;;;;;31.55;11.07;;;;;;;1.65;100.00;102106.09;7402680;19;20387;-47
2022/01/26 09:06:11;;;;;;;44.17;14.30;;;;;;;1.69;100.00;102098.91;7398717;19;20589;-49
2022/01/26 09:08:45;;;;;;;40.30;12.83;;;;;;;1.70;100.00;102105.78;7402682;19;20148;-47
2022/01/26 09:11:20;;;;;;;55.17;17.75;;;;;;;1.68;100.00;102112.38;7380288;19;20707;-46
2022/01/26 09:13:57;;;;;;;54.47;15.88;;;;;;;1.68;100.00;102104.75;7403372;19;20144;-47
2022/01/26 09:16:30;;;;;;;29.40;10.57;;;;;;;1.63;100.00;102112.69;7400670;19;20214;-45
2022/01/26 09:19:06;;;;;;;55.50;14.80;;;;;;;1.65;100.00;102101.91;7404031;19;20139;-45
2022/01/26 09:21:36;;;;;;;44.05;14.48;;;;;;;1.64;100.00;102095.00;7400724;19;20628;-49
2022/01/26 09:24:06;;;;;;;63.17;13.40;;;;;;;1.63;100.00;102103.38;7401982;19;20134;-46
2022/01/26 09:26:35;;;;;;;77.05;24.38;;;;;;;1.74;100.00;102100.28;7398331;19;20200;-46
2022/01/26 09:29:05;;;;;;;51.10;16.30;;;;;;;1.72;100.00;102093.22;7401808;19;20119;-46
2022/01/26 09:31:37;;;;;;;45.28;12.63;;;;;;;1.61;100.00;102089.63;7401319;19;20211;-44
2022/01/26 09:34:07;;;;;;;39.05;12.90;;;;;;;1.67;100.00;102095.31;7403402;19;20179;-48
2022/01/26 09:36:37;;;;;;;46.25;16.15;;;;;;;1.61;100.00;102102.34;7396607;19;20194;-46
2022/01/26 09:39:06;;;;;;;30.55;9.00;;;;;;;1.60;100.00;102100.56;7401608;19;20124;-47
2022/01/26 09:41:37;;;;;;;55.03;18.52;;;;;;;1.70;100.00;102087.97;7399018;19;20189;-46
2022/01/26 09:44:08;;;;;;;32.08;9.88;;;;;;;1.60;100.00;102088.72;7401263;19;20130;-46
2022/01/26 09:46:40;;;;;;;71.20;21.42;;;;;;;1.63;100.00;102088.13;7397277;19;20481;-43
2022/01/26 09:49:10;;;;;;;40.47;14.00;;;;;;;1.64;100.00;102095.00;7401045;19;20143;-47
2022/01/26 09:51:43;;;;;;;59.85;20.65;;;;;;;1.61;100.00;102100.72;7399702;19;20407;-45
2022/01/26 09:54:15;;;;;;;58.30;20.02;;;;;;;1.59;100.00;102086.91;7400932;19;20125;-47
2022/01/26 09:56:47;;;;;;;61.75;20.55;;;;;;;1.62;100.00;102096.50;7379109;19;20190;-45
2022/01/26 09:59:17;;;;;;;49.60;15.25;;;;;;;1.57;100.00;102108.78;7400260;19;20430;-47
2022/01/26 10:01:51;;;;;;;36.13;11.77;;;;;;;1.56;100.00;102103.53;7385499;19;20199;-47
2022/01/26 10:04:27;;;;;;;51.15;14.18;;;;;;;1.53;100.00;102096.50;7400331;19;20125;-47
2022/01/26 10:07:11;;;;;;;35.38;11.13;;;;;;;1.56;100.00;102093.34;7397558;19;20213;-47
2022/01/26 10:10:02;;;;;;;41.75;14.43;;;;;;;1.57;100.00;102101.16;7400499;19;20130;-45
2022/01/26 10:15:32;;;;;;;66.85;20.02;;;;;;;1.60;100.00;102095.47;7375766;19;20553;-46
2022/01/26 10:18:08;;;;;;;45.63;15.18;;;;;;;1.55;100.00;102099.19;7402764;19;20123;-44
2022/01/26 10:20:43;;;;;;;64.93;21.17;;;;;;;1.57;100.00;102095.16;7393485;19;20566;-49
2022/01/26 10:23:16;;;;;;;69.07;22.00;;;;;;;1.56;100.00;102101.91;7400952;19;20513;-48
2022/01/26 10:25:48;;;;;;;49.50;17.50;;;;;;;1.54;100.00;102112.66;7394321;19;20207;-51
2022/01/26 10:28:19;;;;;;;76.80;19.38;;;;;;;1.52;100.00;102119.22;7399831;19;20210;-49
2022/01/26 10:30:49;;;;;;;42.08;14.70;;;;;;;1.54;100.00;102117.75;7397796;19;20188;-49
2022/01/26 10:33:22;;;;;;;46.13;13.10;;;;;;;1.47;100.00;102117.13;7399768;19;20123;-45
2022/01/26 10:35:51;;;;;;;68.90;20.70;;;;;;;1.71;100.00;102130.53;7397414;19;20194;-46
2022/01/26 10:38:20;;;;;;;40.53;15.43;;;;;;;1.58;100.00;102122.38;7399313;19;20123;-45
2022/01/26 10:40:50;;;;;;;25.27;8.45;;;;;;;1.44;100.00;102114.28;7397497;19;20254;-46
2022/01/26 10:43:20;;;;;;;34.75;12.50;;;;;;;1.66;100.00;102121.53;7401612;19;20183;-44
2022/01/26 10:45:58;;;;;;;72.13;22.50;;;;;;;1.69;100.00;102118.41;7395929;19;20190;-45
2022/01/26 10:48:40;;;;;;;35.53;10.70;;;;;;;1.72;100.00;102117.03;7398607;19;20138;-45
2022/01/26 10:51:36;;;;;;;46.95;14.68;;;;;;;1.50;100.00;102118.19;7398411;19;20186;-46
2022/01/26 10:54:19;;;;;;;38.38;12.32;;;;;;;1.52;100.00;102114.13;7399160;19;20402;-51
2022/01/26 10:56:54;;;;;;;42.05;12.25;;;;;;;1.34;100.00;102111.56;7392163;19;20457;-46
2022/01/26 10:59:23;;;;;;;68.15;19.58;;;;;;;1.38;100.00;102118.75;7398582;19;20392;-47
2022/01/26 11:01:53;;;;;;;42.90;12.95;;;;;;;1.24;100.00;102114.81;7396948;19;20127;-45
2022/01/26 11:04:25;;;;;;;47.17;13.45;;;;;;;1.18;100.00;102111.66;7398263;19;20194;-45
2022/01/26 11:06:56;;;;;;;53.03;11.38;;;;;;;1.23;100.00;102096.88;7394852;19;20154;-44
2022/01/26 11:09:29;;;;;;;73.60;20.98;;;;;;;1.25;100.00;102090.28;7398233;19;20455;-44
2022/01/26 11:12:02;;;;;;;64.47;15.95;;;;;;;1.21;100.00;102087.44;7396234;19;20119;-53
2022/01/26 11:14:41;;;;;;;51.47;15.50;;;;;;;1.44;100.00;102090.50;7397110;19;20119;-44
2022/01/26 11:17:13;;;;;;;69.95;17.90;;;;;;;1.46;100.00;102079.72;7395362;19;20162;-44
2022/01/26 11:19:49;;;;;;;59.78;14.35;;;;;;;1.25;100.00;102073.38;7398267;19;20126;-45
2022/01/26 11:22:25;;;;;;;39.25;11.40;;;;;;;1.19;100.00;102073.66;7396140;19;20187;-46
2022/01/26 11:24:55;;;;;;;48.43;14.07;;;;;;;1.21;100.00;102061.09;7396589;19;20131;-46
2022/01/26 11:27:35;;;;;;;37.13;13.27;;;;;;;1.24;100.00;102046.16;7393820;19;20451;-49
2022/01/26 11:30:17;;;;;;;59.15;14.40;;;;;;;1.21;100.00;102031.50;7395333;19;20119;-46
2022/01/26 11:32:56;;;;;;;26.77;10.77;;;;;;;1.21;100.00;102026.41;7395511;19;20179;-48
2022/01/26 11:35:29;;;;;;;47.60;13.75;;;;;;;1.17;100.00;102023.38;7393810;19;20161;-48
2022/01/26 11:38:15;;;;;;;46.63;9.63;;;;;;;1.17;100.00;102011.59;7395699;19;20522;-46
2022/01/26 11:46:22;;;;;;;62.53;18.20;;;;;;;1.27;100.00;102008.31;7392910;19;20194;-48
2022/01/26 11:49:01;;;;;;;61.17;17.27;;;;;;;1.23;100.00;102007.88;7396152;19;20124;-44
2022/01/26 11:51:44;;;;;;;47.80;12.00;;;;;;;1.12;100.00;102010.22;7392921;19;20182;-46
2022/01/26 11:54:15;;;;;;;71.03;18.95;;;;;;;1.22;100.00;102001.88;7396404;19;20450;-52
2022/01/26 11:56:57;;;;;;;56.40;13.48;;;;;;;1.12;100.00;102000.06;7392593;19;20254;-43
2022/01/26 11:59:29;;;;;;;50.92;17.45;;;;;;;1.12;100.00;102004.25;7396369;19;20123;-44
2022/01/26 12:02:02;;;;;;;44.35;12.38;;;;;;;1.11;100.00;102000.81;7401497;19;20197;-46
2022/01/26 12:04:36;;;;;;;68.53;16.45;;;;;;;1.10;100.00;101991.38;7402835;19;20412;-46
2022/01/26 12:07:21;;;;;;;66.00;19.83;;;;;;;1.13;100.00;101983.16;7399899;19;20193;-47
2022/01/26 12:09:52;;;;;;;51.53;12.65;;;;;;;1.12;100.00;101978.84;7403122;19;20123;-47
2022/01/26 12:12:23;;;;;;;62.08;13.57;;;;;;;1.15;100.00;101976.59;7400396;19;20595;-44
2022/01/26 12:15:03;;;;;;;68.50;20.92;;;;;;;1.15;100.00;101977.50;7402081;19;20126;-47
2022/01/26 12:17:37;;;;;;;74.88;17.23;;;;;;;1.14;100.00;101968.06;7402526;19;20245;-46
2022/01/26 12:34:32;;;;;;;42.80;13.43;;;;;;;1.06;100.00;101963.84;7406993;19;20127;-45
2022/01/26 12:37:11;;;;;;;39.15;12.43;;;;;;;1.12;100.00;101958.50;7381281;19;20461;-46
2022/01/26 12:45:23;;;;;;;47.13;11.43;;;;;;;1.17;100.00;101953.09;7401809;19;20134;-45
2022/01/26 12:47:54;;;;;;;39.15;12.23;;;;;;;1.37;100.00;101955.84;7400845;19;20469;-50
2022/01/26 12:50:25;;;;;;;61.72;14.70;;;;;;;1.38;100.00;101950.00;7401259;19;20123;-45
2022/01/26 12:52:56;;;;;;;48.33;15.40;;;;;;;1.15;100.00;101949.53;7402877;19;20123;-44
2022/01/26 12:55:30;;;;;;;71.53;21.95;;;;;;;1.22;100.00;101945.94;7395076;19;20155;-44
2022/01/26 12:58:00;;;;;;;45.10;12.27;;;;;;;1.20;100.00;101940.72;7401200;19;20119;-45
2022/01/26 13:00:40;;;;;;;77.13;19.90;;;;;;;1.20;100.00;101932.16;7401943;19;20250;-46
2022/01/26 13:03:15;;;;;;;53.70;13.68;;;;;;;1.20;100.00;101917.81;7404786;19;20127;-50
2022/01/26 13:05:45;;;;;;;72.57;18.13;;;;;;;1.34;100.00;101910.66;7399866;19;20464;-46